Hlavní strana
METAR-TAF:

METAR-TAF

Letiště :

Volgograd, Rusko

zeměpisná šířka: 48-47N, zeměpisná délka: 044-22E, výška: 145 m

Aktuální stav počasí

Zpráva byla vytvořena před 15 minutami, v 04:00 UTC
Severozápadní vítr 8 kt
Teplota 5°C
Vlhkost vzduchu 60%
Tlak 1020 hPa
Viditelnost 10 km a více
Žádná oblačnost pod 1500 m, nevyskytují se cumulonimby.

METAR: URWW 050400Z 31004MPS CAVOK 05/M02 Q1020 R24/010070 NOSIG

Čas: 08:15 (04:15 UTC)

Předpověď počasí

Zpráva byla vytvořena před 2 hodinami a 17 minutami, v 01:58 UTC
Předpověď platná od 05 v 03 UTC do 05 v 12 UTC
Západoseverozápadní vítr 12 kt s nárazy do 23 kt
Viditelnost 10 km a více
Polojasno ve výšce 3000 ft, Cumulonimbus.
Dočasný
od 05 v 03 UTC do 05 v 06 UTC
Západní vítr 6 kt s nárazy do 16 kt
Dočasný
od 05 v 06 UTC do 05 v 12 UTC
Severoseverozápadní vítr 14 kt s nárazy do 27 kt

TAF: URWW 050158Z 0503/0512 30006G12MPS 9999 SCT030CB TEMPO 0503/0506 27003G08MPS TEMPO 0506/0512 33007G14MPS

Stav a předpovědi počasí z více než 4 000 letišť (zprávy METAR a TAF).

Červené a žluté tečky na mapě představují dostupné meteorologické stanice.

Když kurzor umístíte na tečku, zobrazí se název stanice.

Pak kliknutím zobrazíte stav a předpověď počasí.

Chcete-li změnit mapu, kliknutím na zelené tlačítko se znaménkem +mapu přiblížíte, kliknutím na zelené tlačítko se znaménkem – mapu oddálíte a kliknutím na zelené šipky přejdete na sousední mapy.


METAR-TAF: